sensor_id;sensor_type;location;lat;lon;timestamp;P1;durP1;ratioP1;P2;durP2;ratioP2
80694;SDS011;70059;42.702;23.312;2023-05-29T00:00:47;14.82;;;13.43;;
80694;SDS011;70059;42.702;23.312;2023-05-29T00:03:12;15.00;;;13.50;;
80694;SDS011;70059;42.702;23.312;2023-05-29T00:05:38;15.40;;;13.90;;
80694;SDS011;70059;42.702;23.312;2023-05-29T00:08:04;15.07;;;13.68;;
80694;SDS011;70059;42.702;23.312;2023-05-29T00:10:31;15.10;;;13.40;;
80694;SDS011;70059;42.702;23.312;2023-05-29T00:12:57;15.18;;;13.00;;
80694;SDS011;70059;42.702;23.312;2023-05-29T00:15:23;14.73;;;13.32;;
80694;SDS011;70059;42.702;23.312;2023-05-29T00:17:48;14.45;;;12.95;;
80694;SDS011;70059;42.702;23.312;2023-05-29T00:20:14;15.13;;;13.63;;
80694;SDS011;70059;42.702;23.312;2023-05-29T00:22:40;13.95;;;12.60;;
80694;SDS011;70059;42.702;23.312;2023-05-29T00:25:07;15.43;;;12.75;;
80694;SDS011;70059;42.702;23.312;2023-05-29T00:27:33;16.13;;;12.85;;
80694;SDS011;70059;42.702;23.312;2023-05-29T00:30:00;14.98;;;13.50;;
80694;SDS011;70059;42.702;23.312;2023-05-29T00:32:26;14.05;;;12.63;;
80694;SDS011;70059;42.702;23.312;2023-05-29T00:34:52;14.85;;;12.90;;
80694;SDS011;70059;42.702;23.312;2023-05-29T00:37:19;17.00;;;12.68;;
80694;SDS011;70059;42.702;23.312;2023-05-29T00:39:46;13.73;;;12.07;;
80694;SDS011;70059;42.702;23.312;2023-05-29T00:42:12;14.00;;;12.60;;
80694;SDS011;70059;42.702;23.312;2023-05-29T00:44:38;14.82;;;12.52;;
80694;SDS011;70059;42.702;23.312;2023-05-29T00:47:04;14.68;;;13.18;;
80694;SDS011;70059;42.702;23.312;2023-05-29T00:49:30;14.43;;;13.07;;
80694;SDS011;70059;42.702;23.312;2023-05-29T00:51:56;19.58;;;13.77;;
80694;SDS011;70059;42.702;23.312;2023-05-29T00:54:23;14.32;;;13.02;;
80694;SDS011;70059;42.702;23.312;2023-05-29T00:56:52;14.13;;;12.77;;
80694;SDS011;70059;42.702;23.312;2023-05-29T00:59:18;17.08;;;14.63;;
80694;SDS011;70059;42.702;23.312;2023-05-29T01:01:47;14.32;;;13.02;;
80694;SDS011;70059;42.702;23.312;2023-05-29T01:04:15;17.23;;;13.85;;
80694;SDS011;70059;42.702;23.312;2023-05-29T01:06:42;15.90;;;13.40;;
80694;SDS011;70059;42.702;23.312;2023-05-29T01:09:08;14.50;;;13.10;;
80694;SDS011;70059;42.702;23.312;2023-05-29T01:11:44;15.20;;;13.65;;
80694;SDS011;70059;42.702;23.312;2023-05-29T01:17:38;15.15;;;13.70;;
80694;SDS011;70059;42.702;23.312;2023-05-29T01:28:40;16.02;;;13.15;;
80694;SDS011;70059;42.702;23.312;2023-05-29T01:31:09;15.05;;;13.70;;
80694;SDS011;70059;42.702;23.312;2023-05-29T01:33:39;15.27;;;13.77;;
80694;SDS011;70059;42.702;23.312;2023-05-29T01:36:06;15.80;;;13.48;;
80694;SDS011;70059;42.702;23.312;2023-05-29T01:38:33;15.27;;;13.85;;
80694;SDS011;70059;42.702;23.312;2023-05-29T01:41:00;15.30;;;13.70;;
80694;SDS011;70059;42.702;23.312;2023-05-29T01:43:26;15.32;;;13.60;;
80694;SDS011;70059;42.702;23.312;2023-05-29T01:45:52;16.50;;;13.80;;
80694;SDS011;70059;42.702;23.312;2023-05-29T01:48:18;18.55;;;14.23;;
80694;SDS011;70059;42.702;23.312;2023-05-29T01:50:44;15.68;;;14.07;;
80694;SDS011;70059;42.702;23.312;2023-05-29T01:53:13;16.27;;;13.93;;
80694;SDS011;70059;42.702;23.312;2023-05-29T01:55:40;14.30;;;13.02;;
80694;SDS011;70059;42.702;23.312;2023-05-29T01:58:06;16.10;;;13.57;;
80694;SDS011;70059;42.702;23.312;2023-05-29T02:00:32;15.05;;;13.55;;
80694;SDS011;70059;42.702;23.312;2023-05-29T02:02:58;15.27;;;13.70;;
80694;SDS011;70059;42.702;23.312;2023-05-29T02:05:24;15.20;;;13.55;;
80694;SDS011;70059;42.702;23.312;2023-05-29T02:07:49;14.70;;;13.20;;
80694;SDS011;70059;42.702;23.312;2023-05-29T02:10:15;16.40;;;13.63;;
80694;SDS011;70059;42.702;23.312;2023-05-29T02:12:41;17.23;;;12.93;;
80694;SDS011;70059;42.702;23.312;2023-05-29T02:15:07;14.57;;;13.07;;
80694;SDS011;70059;42.702;23.312;2023-05-29T02:17:33;13.95;;;12.73;;
80694;SDS011;70059;42.702;23.312;2023-05-29T02:19:59;15.00;;;13.40;;
80694;SDS011;70059;42.702;23.312;2023-05-29T02:22:24;15.60;;;13.20;;
80694;SDS011;70059;42.702;23.312;2023-05-29T02:24:50;15.73;;;13.60;;
80694;SDS011;70059;42.702;23.312;2023-05-29T02:27:16;14.68;;;13.20;;
80694;SDS011;70059;42.702;23.312;2023-05-29T02:29:41;15.40;;;13.77;;
80694;SDS011;70059;42.702;23.312;2023-05-29T02:32:07;17.00;;;14.55;;
80694;SDS011;70059;42.702;23.312;2023-05-29T02:34:33;16.38;;;13.23;;
80694;SDS011;70059;42.702;23.312;2023-05-29T02:36:58;16.83;;;13.90;;
80694;SDS011;70059;42.702;23.312;2023-05-29T02:39:24;15.98;;;14.38;;
80694;SDS011;70059;42.702;23.312;2023-05-29T02:41:49;16.38;;;13.88;;
80694;SDS011;70059;42.702;23.312;2023-05-29T02:44:15;15.30;;;13.60;;
80694;SDS011;70059;42.702;23.312;2023-05-29T02:46:41;15.63;;;13.50;;
80694;SDS011;70059;42.702;23.312;2023-05-29T02:49:07;15.77;;;13.68;;
80694;SDS011;70059;42.702;23.312;2023-05-29T02:51:32;15.88;;;14.05;;
80694;SDS011;70059;42.702;23.312;2023-05-29T02:53:58;20.58;;;13.60;;
80694;SDS011;70059;42.702;23.312;2023-05-29T02:56:23;14.25;;;12.90;;
80694;SDS011;70059;42.702;23.312;2023-05-29T02:58:50;17.02;;;12.90;;
80694;SDS011;70059;42.702;23.312;2023-05-29T03:01:16;19.48;;;14.35;;
80694;SDS011;70059;42.702;23.312;2023-05-29T03:03:42;15.00;;;13.07;;
80694;SDS011;70059;42.702;23.312;2023-05-29T03:06:07;16.80;;;14.10;;
80694;SDS011;70059;42.702;23.312;2023-05-29T03:08:34;17.55;;;13.80;;
80694;SDS011;70059;42.702;23.312;2023-05-29T03:11:06;23.53;;;14.23;;
80694;SDS011;70059;42.702;23.312;2023-05-29T03:13:35;15.02;;;13.45;;
80694;SDS011;70059;42.702;23.312;2023-05-29T03:16:04;14.40;;;12.98;;
80694;SDS011;70059;42.702;23.312;2023-05-29T03:18:30;16.45;;;13.68;;
80694;SDS011;70059;42.702;23.312;2023-05-29T03:20:56;16.75;;;13.85;;
80694;SDS011;70059;42.702;23.312;2023-05-29T03:23:22;15.57;;;13.52;;
80694;SDS011;70059;42.702;23.312;2023-05-29T03:25:48;19.85;;;14.48;;
80694;SDS011;70059;42.702;23.312;2023-05-29T03:28:14;17.20;;;14.23;;
80694;SDS011;70059;42.702;23.312;2023-05-29T03:30:40;18.73;;;14.13;;
80694;SDS011;70059;42.702;23.312;2023-05-29T03:33:05;20.60;;;14.50;;
80694;SDS011;70059;42.702;23.312;2023-05-29T03:35:31;17.85;;;14.25;;
80694;SDS011;70059;42.702;23.312;2023-05-29T03:37:57;21.17;;;14.45;;
80694;SDS011;70059;42.702;23.312;2023-05-29T03:40:23;22.17;;;14.50;;
80694;SDS011;70059;42.702;23.312;2023-05-29T03:42:48;20.80;;;13.85;;
80694;SDS011;70059;42.702;23.312;2023-05-29T03:45:14;23.20;;;14.93;;
80694;SDS011;70059;42.702;23.312;2023-05-29T03:47:40;22.23;;;19.52;;
80694;SDS011;70059;42.702;23.312;2023-05-29T03:50:06;26.02;;;21.80;;
80694;SDS011;70059;42.702;23.312;2023-05-29T03:52:33;19.35;;;14.75;;
80694;SDS011;70059;42.702;23.312;2023-05-29T03:54:59;18.50;;;14.57;;
80694;SDS011;70059;42.702;23.312;2023-05-29T03:57:24;15.95;;;12.93;;
80694;SDS011;70059;42.702;23.312;2023-05-29T03:59:51;21.95;;;14.43;;
80694;SDS011;70059;42.702;23.312;2023-05-29T04:02:17;15.70;;;14.07;;
80694;SDS011;70059;42.702;23.312;2023-05-29T04:04:43;16.73;;;14.40;;
80694;SDS011;70059;42.702;23.312;2023-05-29T04:07:10;16.88;;;14.95;;
80694;SDS011;70059;42.702;23.312;2023-05-29T04:09:36;19.65;;;14.40;;
80694;SDS011;70059;42.702;23.312;2023-05-29T04:12:06;15.30;;;13.18;;
80694;SDS011;70059;42.702;23.312;2023-05-29T04:14:32;15.52;;;13.57;;
80694;SDS011;70059;42.702;23.312;2023-05-29T04:16:58;21.48;;;14.27;;
80694;SDS011;70059;42.702;23.312;2023-05-29T04:21:52;18.65;;;15.60;;
80694;SDS011;70059;42.702;23.312;2023-05-29T04:24:21;19.38;;;15.50;;
80694;SDS011;70059;42.702;23.312;2023-05-29T04:26:47;18.85;;;15.45;;
80694;SDS011;70059;42.702;23.312;2023-05-29T04:31:57;23.75;;;17.23;;
80694;SDS011;70059;42.702;23.312;2023-05-29T04:34:23;27.20;;;17.55;;
80694;SDS011;70059;42.702;23.312;2023-05-29T04:36:59;29.45;;;18.40;;
80694;SDS011;70059;42.702;23.312;2023-05-29T04:39:27;26.85;;;17.08;;
80694;SDS011;70059;42.702;23.312;2023-05-29T04:41:56;26.10;;;16.50;;
80694;SDS011;70059;42.702;23.312;2023-05-29T04:44:25;28.90;;;18.92;;
80694;SDS011;70059;42.702;23.312;2023-05-29T04:46:54;22.52;;;16.25;;
80694;SDS011;70059;42.702;23.312;2023-05-29T04:49:24;24.75;;;16.02;;
80694;SDS011;70059;42.702;23.312;2023-05-29T04:51:50;31.10;;;17.10;;
80694;SDS011;70059;42.702;23.312;2023-05-29T04:54:18;22.95;;;15.80;;
80694;SDS011;70059;42.702;23.312;2023-05-29T04:56:45;24.33;;;15.88;;
80694;SDS011;70059;42.702;23.312;2023-05-29T04:59:14;25.75;;;15.82;;
80694;SDS011;70059;42.702;23.312;2023-05-29T05:01:40;23.55;;;15.43;;
80694;SDS011;70059;42.702;23.312;2023-05-29T05:04:08;20.20;;;15.75;;
80694;SDS011;70059;42.702;23.312;2023-05-29T05:06:38;24.92;;;16.67;;
80694;SDS011;70059;42.702;23.312;2023-05-29T05:09:25;25.92;;;16.92;;
80694;SDS011;70059;42.702;23.312;2023-05-29T05:11:51;21.45;;;16.48;;
80694;SDS011;70059;42.702;23.312;2023-05-29T05:14:48;23.13;;;15.38;;
80694;SDS011;70059;42.702;23.312;2023-05-29T05:17:22;26.25;;;18.20;;
80694;SDS011;70059;42.702;23.312;2023-05-29T05:19:55;27.73;;;19.73;;
80694;SDS011;70059;42.702;23.312;2023-05-29T05:22:23;31.10;;;17.38;;
80694;SDS011;70059;42.702;23.312;2023-05-29T05:24:49;32.60;;;17.25;;
80694;SDS011;70059;42.702;23.312;2023-05-29T05:27:17;30.70;;;16.77;;
80694;SDS011;70059;42.702;23.312;2023-05-29T05:29:48;24.60;;;16.33;;
80694;SDS011;70059;42.702;23.312;2023-05-29T05:32:14;25.55;;;16.80;;
80694;SDS011;70059;42.702;23.312;2023-05-29T05:34:59;24.15;;;17.80;;
80694;SDS011;70059;42.702;23.312;2023-05-29T05:37:28;28.38;;;17.50;;
80694;SDS011;70059;42.702;23.312;2023-05-29T05:39:54;33.42;;;19.60;;
80694;SDS011;70059;42.702;23.312;2023-05-29T05:42:22;23.27;;;15.98;;
80694;SDS011;70059;42.702;23.312;2023-05-29T05:44:48;21.38;;;16.13;;
80694;SDS011;70059;42.702;23.312;2023-05-29T05:47:14;24.10;;;15.85;;
80694;SDS011;70059;42.702;23.312;2023-05-29T05:49:40;21.55;;;16.15;;
80694;SDS011;70059;42.702;23.312;2023-05-29T05:52:06;16.95;;;12.85;;
80694;SDS011;70059;42.702;23.312;2023-05-29T05:54:31;21.58;;;13.23;;
80694;SDS011;70059;42.702;23.312;2023-05-29T05:56:57;20.25;;;12.85;;
80694;SDS011;70059;42.702;23.312;2023-05-29T05:59:26;20.20;;;12.02;;
80694;SDS011;70059;42.702;23.312;2023-05-29T06:01:52;25.65;;;12.85;;
80694;SDS011;70059;42.702;23.312;2023-05-29T06:04:28;15.18;;;10.88;;
80694;SDS011;70059;42.702;23.312;2023-05-29T06:06:55;17.35;;;12.02;;
80694;SDS011;70059;42.702;23.312;2023-05-29T06:09:33;15.45;;;8.77;;
80694;SDS011;70059;42.702;23.312;2023-05-29T06:12:03;17.55;;;9.68;;
80694;SDS011;70059;42.702;23.312;2023-05-29T06:14:29;9.07;;;6.65;;
80694;SDS011;70059;42.702;23.312;2023-05-29T06:17:05;9.52;;;6.63;;
80694;SDS011;70059;42.702;23.312;2023-05-29T06:19:41;10.02;;;7.05;;
80694;SDS011;70059;42.702;23.312;2023-05-29T06:22:15;12.27;;;6.55;;
80694;SDS011;70059;42.702;23.312;2023-05-29T06:24:40;13.48;;;6.90;;
80694;SDS011;70059;42.702;23.312;2023-05-29T06:27:07;10.95;;;6.90;;
80694;SDS011;70059;42.702;23.312;2023-05-29T06:29:33;15.02;;;6.90;;
80694;SDS011;70059;42.702;23.312;2023-05-29T06:31:59;13.52;;;6.53;;
80694;SDS011;70059;42.702;23.312;2023-05-29T06:34:25;12.13;;;7.65;;
80694;SDS011;70059;42.702;23.312;2023-05-29T06:36:51;12.57;;;8.40;;
80694;SDS011;70059;42.702;23.312;2023-05-29T06:39:19;9.15;;;7.20;;
80694;SDS011;70059;42.702;23.312;2023-05-29T06:41:45;10.77;;;7.30;;
80694;SDS011;70059;42.702;23.312;2023-05-29T06:44:11;11.38;;;7.60;;
80694;SDS011;70059;42.702;23.312;2023-05-29T06:46:37;14.18;;;7.57;;
80694;SDS011;70059;42.702;23.312;2023-05-29T06:49:04;13.10;;;7.20;;
80694;SDS011;70059;42.702;23.312;2023-05-29T06:51:30;11.20;;;8.15;;
80694;SDS011;70059;42.702;23.312;2023-05-29T06:53:57;11.27;;;7.65;;
80694;SDS011;70059;42.702;23.312;2023-05-29T06:56:26;12.05;;;6.22;;
80694;SDS011;70059;42.702;23.312;2023-05-29T06:58:55;11.30;;;6.90;;
80694;SDS011;70059;42.702;23.312;2023-05-29T07:01:21;8.88;;;5.93;;
80694;SDS011;70059;42.702;23.312;2023-05-29T07:03:51;10.18;;;5.93;;
80694;SDS011;70059;42.702;23.312;2023-05-29T07:06:18;11.07;;;5.70;;
80694;SDS011;70059;42.702;23.312;2023-05-29T07:08:46;14.60;;;5.18;;
80694;SDS011;70059;42.702;23.312;2023-05-29T07:11:28;8.38;;;5.32;;
80694;SDS011;70059;42.702;23.312;2023-05-29T07:14:14;12.20;;;4.90;;
80694;SDS011;70059;42.702;23.312;2023-05-29T07:16:44;8.98;;;4.47;;
80694;SDS011;70059;42.702;23.312;2023-05-29T07:19:10;8.13;;;4.95;;
80694;SDS011;70059;42.702;23.312;2023-05-29T07:21:38;5.22;;;3.80;;
80694;SDS011;70059;42.702;23.312;2023-05-29T07:24:06;7.50;;;4.18;;
80694;SDS011;70059;42.702;23.312;2023-05-29T07:26:33;14.35;;;4.93;;
80694;SDS011;70059;42.702;23.312;2023-05-29T07:28:59;6.43;;;4.80;;
80694;SDS011;70059;42.702;23.312;2023-05-29T07:31:25;6.10;;;4.40;;
80694;SDS011;70059;42.702;23.312;2023-05-29T07:33:51;6.78;;;4.72;;
80694;SDS011;70059;42.702;23.312;2023-05-29T07:36:16;9.32;;;5.15;;
80694;SDS011;70059;42.702;23.312;2023-05-29T07:38:43;8.60;;;4.05;;
80694;SDS011;70059;42.702;23.312;2023-05-29T07:41:09;4.43;;;3.67;;
80694;SDS011;70059;42.702;23.312;2023-05-29T07:43:35;8.30;;;5.15;;
80694;SDS011;70059;42.702;23.312;2023-05-29T07:46:01;10.32;;;8.15;;
80694;SDS011;70059;42.702;23.312;2023-05-29T07:48:26;11.52;;;5.38;;
80694;SDS011;70059;42.702;23.312;2023-05-29T07:50:52;10.23;;;6.63;;
80694;SDS011;70059;42.702;23.312;2023-05-29T07:53:19;4.43;;;3.70;;
80694;SDS011;70059;42.702;23.312;2023-05-29T07:55:57;7.35;;;3.42;;
80694;SDS011;70059;42.702;23.312;2023-05-29T07:58:50;6.53;;;4.10;;
80694;SDS011;70059;42.702;23.312;2023-05-29T08:01:18;6.50;;;4.03;;
80694;SDS011;70059;42.702;23.312;2023-05-29T08:03:44;8.77;;;4.60;;
80694;SDS011;70059;42.702;23.312;2023-05-29T08:06:10;4.13;;;3.70;;
80694;SDS011;70059;42.702;23.312;2023-05-29T08:08:39;8.40;;;4.00;;
80694;SDS011;70059;42.702;23.312;2023-05-29T08:11:08;10.18;;;4.00;;
80694;SDS011;70059;42.702;23.312;2023-05-29T08:13:34;5.80;;;3.33;;
80694;SDS011;70059;42.702;23.312;2023-05-29T08:16:36;7.43;;;3.78;;
80694;SDS011;70059;42.702;23.312;2023-05-29T08:19:14;5.85;;;3.80;;
80694;SDS011;70059;42.702;23.312;2023-05-29T08:21:40;8.25;;;4.93;;
80694;SDS011;70059;42.702;23.312;2023-05-29T08:24:06;6.75;;;3.72;;
80694;SDS011;70059;42.702;23.312;2023-05-29T08:26:49;8.38;;;5.35;;
80694;SDS011;70059;42.702;23.312;2023-05-29T08:29:15;9.18;;;4.20;;
80694;SDS011;70059;42.702;23.312;2023-05-29T08:31:43;8.63;;;4.70;;
80694;SDS011;70059;42.702;23.312;2023-05-29T08:34:09;6.03;;;3.90;;
80694;SDS011;70059;42.702;23.312;2023-05-29T08:36:47;7.45;;;4.32;;
80694;SDS011;70059;42.702;23.312;2023-05-29T08:39:13;8.10;;;4.25;;
80694;SDS011;70059;42.702;23.312;2023-05-29T08:44:27;8.43;;;4.88;;
80694;SDS011;70059;42.702;23.312;2023-05-29T08:47:19;8.55;;;4.60;;
80694;SDS011;70059;42.702;23.312;2023-05-29T08:50:07;7.85;;;3.78;;
80694;SDS011;70059;42.702;23.312;2023-05-29T08:52:46;5.00;;;3.72;;
80694;SDS011;70059;42.702;23.312;2023-05-29T08:55:12;7.75;;;4.43;;
80694;SDS011;70059;42.702;23.312;2023-05-29T08:57:38;7.03;;;4.53;;
80694;SDS011;70059;42.702;23.312;2023-05-29T09:00:07;8.82;;;4.95;;
80694;SDS011;70059;42.702;23.312;2023-05-29T09:02:42;10.88;;;6.15;;
80694;SDS011;70059;42.702;23.312;2023-05-29T09:05:09;5.85;;;4.50;;
80694;SDS011;70059;42.702;23.312;2023-05-29T09:07:50;6.47;;;4.50;;
80694;SDS011;70059;42.702;23.312;2023-05-29T09:10:19;7.90;;;4.63;;
80694;SDS011;70059;42.702;23.312;2023-05-29T09:12:47;6.65;;;5.55;;
80694;SDS011;70059;42.702;23.312;2023-05-29T09:15:20;6.18;;;5.55;;
80694;SDS011;70059;42.702;23.312;2023-05-29T09:17:54;9.50;;;5.40;;
80694;SDS011;70059;42.702;23.312;2023-05-29T09:20:24;10.77;;;5.68;;
80694;SDS011;70059;42.702;23.312;2023-05-29T09:23:00;11.48;;;6.55;;
80694;SDS011;70059;42.702;23.312;2023-05-29T09:25:31;12.20;;;6.32;;
80694;SDS011;70059;42.702;23.312;2023-05-29T09:28:17;13.77;;;6.03;;
80694;SDS011;70059;42.702;23.312;2023-05-29T09:31:03;9.73;;;5.10;;
80694;SDS011;70059;42.702;23.312;2023-05-29T09:33:53;9.70;;;4.97;;
80694;SDS011;70059;42.702;23.312;2023-05-29T09:36:22;8.95;;;5.20;;
80694;SDS011;70059;42.702;23.312;2023-05-29T09:38:48;16.65;;;5.75;;
80694;SDS011;70059;42.702;23.312;2023-05-29T09:41:23;9.20;;;5.13;;
80694;SDS011;70059;42.702;23.312;2023-05-29T09:43:52;9.43;;;5.15;;
80694;SDS011;70059;42.702;23.312;2023-05-29T09:46:33;8.30;;;4.45;;
80694;SDS011;70059;42.702;23.312;2023-05-29T09:49:01;9.43;;;5.10;;
80694;SDS011;70059;42.702;23.312;2023-05-29T09:51:31;7.57;;;6.03;;
80694;SDS011;70059;42.702;23.312;2023-05-29T09:53:57;8.25;;;4.93;;
80694;SDS011;70059;42.702;23.312;2023-05-29T09:56:26;7.95;;;5.10;;
80694;SDS011;70059;42.702;23.312;2023-05-29T09:58:53;9.43;;;5.85;;
80694;SDS011;70059;42.702;23.312;2023-05-29T10:01:23;8.93;;;5.47;;
80694;SDS011;70059;42.702;23.312;2023-05-29T10:03:52;6.80;;;4.43;;
80694;SDS011;70059;42.702;23.312;2023-05-29T10:06:20;10.52;;;5.50;;
80694;SDS011;70059;42.702;23.312;2023-05-29T10:08:48;7.25;;;5.00;;
80694;SDS011;70059;42.702;23.312;2023-05-29T10:11:31;9.30;;;6.00;;
80694;SDS011;70059;42.702;23.312;2023-05-29T10:14:04;10.63;;;4.72;;
80694;SDS011;70059;42.702;23.312;2023-05-29T10:16:33;10.82;;;5.38;;
80694;SDS011;70059;42.702;23.312;2023-05-29T10:19:06;19.23;;;5.90;;
80694;SDS011;70059;42.702;23.312;2023-05-29T10:21:38;6.65;;;5.10;;
80694;SDS011;70059;42.702;23.312;2023-05-29T10:24:07;15.73;;;6.20;;
80694;SDS011;70059;42.702;23.312;2023-05-29T10:26:44;11.43;;;5.63;;
80694;SDS011;70059;42.702;23.312;2023-05-29T10:29:28;9.43;;;4.78;;
80694;SDS011;70059;42.702;23.312;2023-05-29T10:35:20;11.82;;;6.35;;
80694;SDS011;70059;42.702;23.312;2023-05-29T10:38:12;11.95;;;5.63;;
80694;SDS011;70059;42.702;23.312;2023-05-29T10:40:43;10.25;;;5.10;;
80694;SDS011;70059;42.702;23.312;2023-05-29T10:43:09;5.70;;;4.18;;
80694;SDS011;70059;42.702;23.312;2023-05-29T10:49:31;9.68;;;4.55;;
80694;SDS011;70059;42.702;23.312;2023-05-29T10:51:59;8.45;;;4.75;;
80694;SDS011;70059;42.702;23.312;2023-05-29T10:54:29;11.13;;;6.60;;
80694;SDS011;70059;42.702;23.312;2023-05-29T10:57:22;11.48;;;5.07;;
80694;SDS011;70059;42.702;23.312;2023-05-29T11:00:04;8.00;;;4.50;;
80694;SDS011;70059;42.702;23.312;2023-05-29T11:02:40;13.38;;;5.50;;
80694;SDS011;70059;42.702;23.312;2023-05-29T11:07:51;10.45;;;5.63;;
80694;SDS011;70059;42.702;23.312;2023-05-29T11:13:36;9.55;;;4.40;;
80694;SDS011;70059;42.702;23.312;2023-05-29T11:19:25;10.27;;;7.55;;
80694;SDS011;70059;42.702;23.312;2023-05-29T11:22:07;11.15;;;5.07;;
80694;SDS011;70059;42.702;23.312;2023-05-29T11:24:47;6.22;;;5.20;;
80694;SDS011;70059;42.702;23.312;2023-05-29T11:27:23;9.50;;;5.75;;
80694;SDS011;70059;42.702;23.312;2023-05-29T11:29:49;5.15;;;4.60;;
80694;SDS011;70059;42.702;23.312;2023-05-29T11:32:20;11.75;;;5.07;;
80694;SDS011;70059;42.702;23.312;2023-05-29T11:34:52;9.93;;;5.97;;
80694;SDS011;70059;42.702;23.312;2023-05-29T11:40:36;5.78;;;4.30;;
80694;SDS011;70059;42.702;23.312;2023-05-29T11:43:03;8.93;;;5.28;;
80694;SDS011;70059;42.702;23.312;2023-05-29T11:45:42;7.43;;;4.53;;
80694;SDS011;70059;42.702;23.312;2023-05-29T11:48:09;8.85;;;4.57;;
80694;SDS011;70059;42.702;23.312;2023-05-29T11:50:36;7.80;;;4.95;;
80694;SDS011;70059;42.702;23.312;2023-05-29T11:55:43;9.27;;;4.55;;
80694;SDS011;70059;42.702;23.312;2023-05-29T11:58:17;7.32;;;4.70;;
80694;SDS011;70059;42.702;23.312;2023-05-29T12:00:44;10.57;;;5.18;;
80694;SDS011;70059;42.702;23.312;2023-05-29T12:03:29;10.05;;;5.57;;
80694;SDS011;70059;42.702;23.312;2023-05-29T12:06:34;13.68;;;4.82;;
80694;SDS011;70059;42.702;23.312;2023-05-29T12:09:06;13.05;;;5.45;;
80694;SDS011;70059;42.702;23.312;2023-05-29T12:14:04;8.25;;;5.70;;
80694;SDS011;70059;42.702;23.312;2023-05-29T12:16:33;10.93;;;6.18;;
80694;SDS011;70059;42.702;23.312;2023-05-29T12:19:00;16.95;;;7.30;;
80694;SDS011;70059;42.702;23.312;2023-05-29T12:21:26;15.40;;;7.57;;
80694;SDS011;70059;42.702;23.312;2023-05-29T12:23:53;14.45;;;12.63;;
80694;SDS011;70059;42.702;23.312;2023-05-29T12:26:23;16.98;;;11.80;;
80694;SDS011;70059;42.702;23.312;2023-05-29T12:28:52;15.05;;;11.23;;
80694;SDS011;70059;42.702;23.312;2023-05-29T12:31:27;12.05;;;10.00;;
80694;SDS011;70059;42.702;23.312;2023-05-29T12:33:54;7.70;;;5.75;;
80694;SDS011;70059;42.702;23.312;2023-05-29T12:36:27;10.05;;;7.28;;
80694;SDS011;70059;42.702;23.312;2023-05-29T12:38:57;7.97;;;7.22;;
80694;SDS011;70059;42.702;23.312;2023-05-29T12:41:27;8.23;;;5.28;;
80694;SDS011;70059;42.702;23.312;2023-05-29T12:46:24;7.93;;;6.05;;
80694;SDS011;70059;42.702;23.312;2023-05-29T12:48:55;9.00;;;4.93;;
80694;SDS011;70059;42.702;23.312;2023-05-29T12:51:25;9.68;;;5.97;;
80694;SDS011;70059;42.702;23.312;2023-05-29T12:53:54;12.10;;;6.35;;
80694;SDS011;70059;42.702;23.312;2023-05-29T12:56:24;12.73;;;6.35;;
80694;SDS011;70059;42.702;23.312;2023-05-29T12:58:51;9.32;;;5.95;;
80694;SDS011;70059;42.702;23.312;2023-05-29T13:01:19;8.90;;;5.32;;
80694;SDS011;70059;42.702;23.312;2023-05-29T13:03:51;13.93;;;5.80;;
80694;SDS011;70059;42.702;23.312;2023-05-29T13:06:26;11.85;;;6.43;;
80694;SDS011;70059;42.702;23.312;2023-05-29T13:09:21;14.52;;;9.63;;
80694;SDS011;70059;42.702;23.312;2023-05-29T13:11:48;9.60;;;6.68;;
80694;SDS011;70059;42.702;23.312;2023-05-29T13:14:15;8.40;;;6.35;;
80694;SDS011;70059;42.702;23.312;2023-05-29T13:16:41;12.55;;;7.63;;
80694;SDS011;70059;42.702;23.312;2023-05-29T13:19:06;9.85;;;7.47;;
80694;SDS011;70059;42.702;23.312;2023-05-29T13:21:32;11.73;;;7.13;;
80694;SDS011;70059;42.702;23.312;2023-05-29T13:23:58;10.98;;;6.70;;
80694;SDS011;70059;42.702;23.312;2023-05-29T13:26:24;8.00;;;6.05;;
80694;SDS011;70059;42.702;23.312;2023-05-29T13:28:51;8.15;;;5.60;;
80694;SDS011;70059;42.702;23.312;2023-05-29T13:31:17;7.43;;;5.20;;
80694;SDS011;70059;42.702;23.312;2023-05-29T13:33:43;5.38;;;3.80;;
80694;SDS011;70059;42.702;23.312;2023-05-29T13:36:13;5.70;;;3.92;;
80694;SDS011;70059;42.702;23.312;2023-05-29T13:38:43;5.50;;;3.53;;
80694;SDS011;70059;42.702;23.312;2023-05-29T13:41:10;8.93;;;4.75;;
80694;SDS011;70059;42.702;23.312;2023-05-29T13:43:36;13.35;;;8.65;;
80694;SDS011;70059;42.702;23.312;2023-05-29T13:46:02;11.27;;;7.50;;
80694;SDS011;70059;42.702;23.312;2023-05-29T13:48:28;9.38;;;6.35;;
80694;SDS011;70059;42.702;23.312;2023-05-29T13:50:54;6.30;;;4.47;;
80694;SDS011;70059;42.702;23.312;2023-05-29T13:53:22;9.13;;;4.80;;
80694;SDS011;70059;42.702;23.312;2023-05-29T13:55:48;11.35;;;5.60;;
80694;SDS011;70059;42.702;23.312;2023-05-29T13:58:15;13.75;;;5.65;;
80694;SDS011;70059;42.702;23.312;2023-05-29T14:00:40;9.73;;;7.82;;
80694;SDS011;70059;42.702;23.312;2023-05-29T14:03:06;6.80;;;5.25;;
80694;SDS011;70059;42.702;23.312;2023-05-29T14:05:36;9.50;;;4.97;;
80694;SDS011;70059;42.702;23.312;2023-05-29T14:08:09;6.40;;;3.65;;
80694;SDS011;70059;42.702;23.312;2023-05-29T14:10:38;3.20;;;2.90;;
80694;SDS011;70059;42.702;23.312;2023-05-29T14:13:05;4.75;;;3.63;;
80694;SDS011;70059;42.702;23.312;2023-05-29T14:15:31;5.40;;;2.95;;
80694;SDS011;70059;42.702;23.312;2023-05-29T14:17:57;8.52;;;2.65;;
80694;SDS011;70059;42.702;23.312;2023-05-29T14:20:22;6.78;;;3.58;;
80694;SDS011;70059;42.702;23.312;2023-05-29T14:22:51;7.20;;;5.07;;
80694;SDS011;70059;42.702;23.312;2023-05-29T14:25:17;7.97;;;4.72;;
80694;SDS011;70059;42.702;23.312;2023-05-29T14:27:42;5.10;;;3.10;;
80694;SDS011;70059;42.702;23.312;2023-05-29T14:30:09;5.00;;;3.42;;
80694;SDS011;70059;42.702;23.312;2023-05-29T14:32:35;5.50;;;3.67;;
80694;SDS011;70059;42.702;23.312;2023-05-29T14:35:01;6.18;;;4.18;;
80694;SDS011;70059;42.702;23.312;2023-05-29T14:37:28;6.68;;;3.70;;
80694;SDS011;70059;42.702;23.312;2023-05-29T14:39:59;9.77;;;3.95;;
80694;SDS011;70059;42.702;23.312;2023-05-29T14:42:27;5.93;;;4.03;;
80694;SDS011;70059;42.702;23.312;2023-05-29T14:44:53;6.80;;;3.83;;
80694;SDS011;70059;42.702;23.312;2023-05-29T14:47:18;10.98;;;7.18;;
80694;SDS011;70059;42.702;23.312;2023-05-29T14:49:47;7.65;;;5.18;;
80694;SDS011;70059;42.702;23.312;2023-05-29T14:52:14;15.57;;;4.57;;
80694;SDS011;70059;42.702;23.312;2023-05-29T14:54:41;5.47;;;3.67;;
80694;SDS011;70059;42.702;23.312;2023-05-29T14:57:07;4.75;;;3.22;;
80694;SDS011;70059;42.702;23.312;2023-05-29T14:59:32;3.13;;;2.83;;
80694;SDS011;70059;42.702;23.312;2023-05-29T15:01:58;5.57;;;3.03;;
80694;SDS011;70059;42.702;23.312;2023-05-29T15:04:25;8.88;;;3.97;;
80694;SDS011;70059;42.702;23.312;2023-05-29T15:06:51;12.55;;;5.22;;
80694;SDS011;70059;42.702;23.312;2023-05-29T15:09:18;7.53;;;3.53;;
80694;SDS011;70059;42.702;23.312;2023-05-29T15:11:44;7.38;;;4.30;;
80694;SDS011;70059;42.702;23.312;2023-05-29T15:14:10;7.97;;;4.20;;
80694;SDS011;70059;42.702;23.312;2023-05-29T15:16:35;5.25;;;3.63;;
80694;SDS011;70059;42.702;23.312;2023-05-29T15:19:31;9.90;;;3.72;;